Time;durP1;ratioP1;P1;durP2;ratioP2;P2;SDS_P1;SDS_P2;PMS_P1;PMS_P2;Temp;Humidity;BMP_temperature;BMP_pressure;BME280_temperature;BME280_humidity;BME280_pressure;Samples;Min_cycle;Max_cycle;Signal;HPM_P1;HPM_P2
2023/09/04 00:00:23;;;;;;;9.38;4.38;;;;;;;15.25;73.48;100107.84;4991972;28;20034;-83
2023/09/04 00:02:49;;;;;;;6.65;4.57;;;;;;;15.11;73.48;100080.50;4992596;28;20037;-84
2023/09/04 00:05:14;;;;;;;7.22;4.30;;;;;;;15.21;73.26;100098.66;4976578;28;20045;-84
2023/09/04 00:07:40;;;;;;;7.47;4.28;;;;;;;15.30;73.11;100102.53;4988960;28;20040;-84
2023/09/04 00:10:06;;;;;;;5.10;4.60;;;;;;;15.18;72.93;100097.25;4991448;28;20069;-84
2023/09/04 00:12:32;;;;;;;5.57;4.32;;;;;;;15.19;73.05;100098.06;4971357;28;20034;-83
2023/09/04 00:14:57;;;;;;;6.75;4.97;;;;;;;15.06;73.41;100109.19;4990540;28;20036;-83
2023/09/04 00:17:23;;;;;;;11.73;5.03;;;;;;;15.00;73.83;100103.72;4990935;28;20413;-84
2023/09/04 00:19:48;;;;;;;10.70;4.70;;;;;;;15.11;73.12;100117.34;4992626;28;20048;-83
2023/09/04 00:22:13;;;;;;;3.88;3.58;;;;;;;15.05;72.90;100104.88;4991244;28;20445;-84
2023/09/04 00:24:39;;;;;;;5.95;4.60;;;;;;;14.99;73.36;100106.66;4991386;28;20121;-84
2023/09/04 00:27:04;;;;;;;7.65;4.68;;;;;;;14.92;73.80;100106.84;4990566;28;20030;-83
2023/09/04 00:29:29;;;;;;;14.50;3.83;;;;;;;14.99;73.17;100110.19;5008863;28;20126;-83
2023/09/04 00:31:55;;;;;;;7.43;4.72;;;;;;;14.91;73.37;100102.53;4990792;28;20068;-84
2023/09/04 00:34:20;;;;;;;7.85;4.88;;;;;;;14.71;73.63;100112.97;4955352;28;20049;-84
2023/09/04 00:36:45;;;;;;;8.80;4.40;;;;;;;14.93;73.38;100113.03;4972788;28;20228;-83
2023/09/04 00:39:11;;;;;;;5.47;4.70;;;;;;;14.85;73.40;100111.56;4974798;28;20394;-84
2023/09/04 00:41:36;;;;;;;12.95;5.07;;;;;;;14.79;73.67;100104.47;4988424;28;20070;-83
2023/09/04 00:44:01;;;;;;;7.38;5.30;;;;;;;14.89;73.01;100109.22;4974599;28;20044;-84
2023/09/04 00:46:27;;;;;;;7.20;5.93;;;;;;;14.90;73.30;100117.03;4989697;28;20083;-84
2023/09/04 00:48:53;;;;;;;11.82;5.13;;;;;;;14.80;73.64;100111.50;4990197;28;20124;-84
2023/09/04 00:51:19;;;;;;;7.95;4.72;;;;;;;14.45;74.04;100107.41;5003746;28;20050;-84
2023/09/04 00:53:44;;;;;;;9.13;4.60;;;;;;;14.54;73.78;100106.78;4973651;28;20069;-84
2023/09/04 00:56:13;;;;;;;5.78;5.28;;;;;;;14.60;73.90;100113.03;4990128;28;20140;-83
2023/09/04 00:58:38;;;;;;;9.20;5.32;;;;;;;14.55;73.89;100113.75;4991668;28;20080;-83
2023/09/04 01:01:04;;;;;;;7.18;5.00;;;;;;;14.55;73.80;100110.25;5002370;28;21244;-83
2023/09/04 01:03:31;;;;;;;8.90;5.00;;;;;;;14.52;73.83;100100.00;4984571;28;20080;-83
2023/09/04 01:05:57;;;;;;;12.60;5.60;;;;;;;14.66;73.92;100106.69;4985814;28;20062;-84
2023/09/04 01:08:22;;;;;;;6.32;5.13;;;;;;;14.69;73.52;100106.19;4975445;28;20064;-83
2023/09/04 01:11:00;;;;;;;10.93;5.28;;;;;;;14.55;74.08;100108.38;5005750;28;20046;-83
2023/09/04 01:13:43;;;;;;;7.75;5.10;;;;;;;14.58;73.66;100115.97;4986687;28;20025;-83
2023/09/04 01:16:11;;;;;;;8.95;5.22;;;;;;;14.44;74.15;100111.16;4988056;28;20068;-83
2023/09/04 01:18:36;;;;;;;7.32;4.78;;;;;;;14.42;74.52;100119.44;5005164;28;20057;-84
2023/09/04 01:21:04;;;;;;;9.35;4.95;;;;;;;14.39;74.51;100111.06;4984441;28;20180;-84
2023/09/04 01:23:30;;;;;;;5.78;4.97;;;;;;;14.42;74.20;100094.44;5007035;28;20541;-83
2023/09/04 01:26:32;;;;;;;6.25;4.82;;;;;;;14.46;74.36;100107.16;4968595;28;20292;-83
2023/09/04 01:29:27;;;;;;;10.25;4.80;;;;;;;14.52;74.11;100100.81;4987935;28;20054;-83
2023/09/04 01:32:12;;;;;;;9.43;4.57;;;;;;;14.31;74.63;100106.09;5004571;28;20026;-84
2023/09/04 01:34:46;;;;;;;7.63;4.70;;;;;;;14.20;74.92;100099.66;5005929;28;20397;-84
2023/09/04 01:37:13;;;;;;;5.95;4.50;;;;;;;14.27;74.56;100095.78;5003631;28;20025;-83
2023/09/04 01:39:40;;;;;;;11.20;5.00;;;;;;;14.21;74.93;100090.56;4989689;28;20037;-83
2023/09/04 01:42:06;;;;;;;10.35;4.93;;;;;;;14.28;74.45;100083.97;4987061;28;20030;-84
2023/09/04 01:44:32;;;;;;;14.20;5.47;;;;;;;14.23;73.61;100093.81;4989315;28;20045;-83
2023/09/04 01:46:58;;;;;;;9.15;5.38;;;;;;;14.30;74.20;100102.59;5005357;28;20049;-84
2023/09/04 01:49:24;;;;;;;6.75;4.25;;;;;;;14.08;74.25;100088.19;5004217;28;20112;-84
2023/09/04 01:51:49;;;;;;;8.27;4.68;;;;;;;14.19;74.33;100096.19;4969568;28;20022;-84
2023/09/04 01:54:14;;;;;;;5.57;4.35;;;;;;;14.00;74.54;100089.38;4972099;28;20033;-84
2023/09/04 01:56:40;;;;;;;10.93;4.60;;;;;;;14.04;74.58;100084.34;4971940;28;20414;-84
2023/09/04 01:59:05;;;;;;;7.55;4.13;;;;;;;14.03;74.75;100078.16;4986447;28;20363;-83
2023/09/04 02:01:31;;;;;;;7.78;4.68;;;;;;;14.13;74.32;100085.59;4989058;28;20057;-84
2023/09/04 02:03:57;;;;;;;5.63;4.63;;;;;;;14.27;73.80;100081.53;4987442;28;20053;-84
2023/09/04 02:06:24;;;;;;;6.03;4.80;;;;;;;14.10;73.98;100081.53;4972940;28;20030;-84
2023/09/04 02:08:49;;;;;;;8.00;5.03;;;;;;;14.20;74.10;100081.69;4991640;28;20032;-84
2023/09/04 02:11:15;;;;;;;5.22;4.57;;;;;;;14.17;73.91;100084.06;5004023;28;20117;-84
2023/09/04 02:13:40;;;;;;;5.70;5.10;;;;;;;14.13;73.85;100081.03;5003469;28;20029;-83
2023/09/04 02:16:06;;;;;;;10.25;5.40;;;;;;;13.99;73.96;100062.78;5000644;28;20033;-84
2023/09/04 02:18:31;;;;;;;6.93;4.93;;;;;;;14.05;73.91;100075.22;5005775;28;20026;-84
2023/09/04 02:20:59;;;;;;;7.82;5.03;;;;;;;13.94;73.78;100063.50;5009276;28;20041;-84
2023/09/04 02:23:25;;;;;;;8.60;6.20;;;;;;;13.90;74.14;100056.16;4977055;28;20437;-84
2023/09/04 02:25:50;;;;;;;6.60;5.00;;;;;;;13.95;73.54;100067.00;5009931;28;20049;-83
2023/09/04 02:28:16;;;;;;;8.35;5.07;;;;;;;13.96;73.88;100064.06;5005939;28;20037;-84
2023/09/04 02:30:41;;;;;;;8.15;5.50;;;;;;;13.88;74.15;100052.91;4992336;28;20033;-83
2023/09/04 02:33:07;;;;;;;6.30;5.13;;;;;;;13.83;74.32;100063.53;4986158;28;20029;-83
2023/09/04 02:35:33;;;;;;;11.35;5.43;;;;;;;13.66;74.99;100057.31;4990181;28;20455;-84
2023/09/04 02:37:59;;;;;;;7.35;5.45;;;;;;;13.76;74.83;100047.56;5009644;28;20042;-82
2023/09/04 02:40:24;;;;;;;6.30;5.25;;;;;;;13.77;74.62;100041.16;5004161;28;20042;-84
2023/09/04 02:42:49;;;;;;;9.82;5.13;;;;;;;13.87;74.50;100053.97;4976962;28;20481;-83
2023/09/04 02:45:15;;;;;;;7.88;6.05;;;;;;;13.62;74.39;100040.06;4991707;28;20044;-84
2023/09/04 02:47:40;;;;;;;9.52;5.90;;;;;;;13.75;74.13;100027.19;4974661;28;20076;-84
2023/09/04 02:50:06;;;;;;;10.15;5.80;;;;;;;13.63;74.34;100045.19;4957374;28;20030;-83
2023/09/04 02:52:32;;;;;;;7.97;6.05;;;;;;;13.74;74.58;100046.22;4987927;28;20073;-83
2023/09/04 02:54:59;;;;;;;7.28;6.50;;;;;;;13.63;73.99;100012.19;4989920;28;20062;-83
2023/09/04 02:57:24;;;;;;;8.00;6.57;;;;;;;13.65;74.14;100021.59;5009211;28;20022;-84
2023/09/04 02:59:50;;;;;;;11.02;6.88;;;;;;;13.51;74.57;100025.63;4990149;28;20081;-84
2023/09/04 03:02:15;;;;;;;12.55;7.70;;;;;;;13.64;74.45;100032.59;5008636;28;20026;-84
2023/09/04 03:04:40;;;;;;;8.73;6.95;;;;;;;13.62;74.18;100037.38;4973529;28;20118;-83
2023/09/04 03:07:06;;;;;;;9.88;7.07;;;;;;;13.56;74.49;100022.25;4973066;28;20025;-83
2023/09/04 03:09:32;;;;;;;11.70;7.75;;;;;;;13.59;74.39;100044.03;4991667;28;20389;-83
2023/09/04 03:11:59;;;;;;;8.95;7.65;;;;;;;13.59;74.38;100040.53;5007439;28;20033;-84
2023/09/04 03:14:24;;;;;;;9.75;7.65;;;;;;;13.69;74.49;100043.44;4988934;28;20029;-84
2023/09/04 03:16:49;;;;;;;10.40;8.07;;;;;;;13.63;74.35;100037.13;4976084;28;20052;-84
2023/09/04 03:19:15;;;;;;;14.40;8.30;;;;;;;13.56;74.30;100032.97;5000756;28;20042;-84
2023/09/04 03:21:40;;;;;;;10.63;8.23;;;;;;;13.49;74.36;100020.53;4992540;28;20494;-84
2023/09/04 03:24:06;;;;;;;13.52;7.72;;;;;;;13.57;74.43;100034.59;4986660;28;20033;-84
2023/09/04 03:26:31;;;;;;;11.18;8.68;;;;;;;13.51;74.82;100039.06;4981667;28;20036;-83
2023/09/04 03:28:57;;;;;;;12.15;8.05;;;;;;;13.53;74.55;100037.75;4975695;28;20121;-84
2023/09/04 03:31:22;;;;;;;10.57;8.27;;;;;;;13.67;74.15;100043.66;4983533;28;20121;-83
2023/09/04 03:33:47;;;;;;;12.48;8.70;;;;;;;13.58;74.05;100044.28;4991612;28;20030;-84
2023/09/04 03:36:13;;;;;;;11.43;8.13;;;;;;;13.44;74.29;100024.97;4992965;28;20052;-84
2023/09/04 03:38:39;;;;;;;12.23;8.27;;;;;;;13.36;74.75;100044.94;4992294;28;20041;-84
2023/09/04 03:41:04;;;;;;;12.57;8.68;;;;;;;13.40;74.56;100034.53;4992492;28;20085;-83
2023/09/04 03:43:30;;;;;;;12.85;8.02;;;;;;;13.22;74.33;100030.16;5005916;28;20493;-84
2023/09/04 03:45:55;;;;;;;13.25;8.55;;;;;;;13.49;74.07;100044.66;4959646;28;20386;-84
2023/09/04 03:48:22;;;;;;;14.32;9.43;;;;;;;13.35;74.56;100037.94;4976515;28;20031;-84
2023/09/04 03:50:47;;;;;;;13.25;8.23;;;;;;;13.41;74.35;100036.19;5007901;28;20125;-84
2023/09/04 03:53:13;;;;;;;10.55;7.38;;;;;;;13.36;74.48;100036.06;4988299;28;20514;-85
2023/09/04 03:55:39;;;;;;;14.73;8.23;;;;;;;13.45;73.85;100043.47;4975965;28;20022;-84
2023/09/04 03:58:04;;;;;;;12.00;8.23;;;;;;;13.35;74.02;100058.56;4977706;28;20034;-84
2023/09/04 04:00:30;;;;;;;13.43;7.25;;;;;;;13.30;74.39;100048.53;4969517;28;20486;-84
2023/09/04 04:02:56;;;;;;;8.52;7.13;;;;;;;13.34;74.31;100055.09;4991898;28;20034;-84
2023/09/04 04:05:24;;;;;;;8.95;6.32;;;;;;;13.27;73.99;100043.66;4990081;28;20104;-84
2023/09/04 04:07:50;;;;;;;8.77;6.80;;;;;;;13.38;73.63;100058.09;4990753;28;20028;-84
2023/09/04 04:10:15;;;;;;;8.55;7.05;;;;;;;13.17;73.73;100038.06;4999243;28;20034;-83
2023/09/04 04:12:41;;;;;;;15.85;7.40;;;;;;;13.26;73.46;100042.03;5004895;28;20029;-84
2023/09/04 04:15:08;;;;;;;12.35;6.80;;;;;;;13.37;73.89;100064.50;5004979;28;20025;-83
2023/09/04 04:17:34;;;;;;;10.88;8.23;;;;;;;13.27;74.51;100064.28;4981384;28;20547;-84
2023/09/04 04:20:00;;;;;;;15.05;8.45;;;;;;;13.36;74.50;100065.56;4988737;28;20032;-84
2023/09/04 04:22:25;;;;;;;12.65;9.02;;;;;;;13.17;75.00;100042.66;4988781;28;20034;-82
2023/09/04 04:24:51;;;;;;;15.90;10.27;;;;;;;13.17;75.14;100050.69;4982703;28;20502;-82
2023/09/04 04:27:17;;;;;;;19.08;10.30;;;;;;;13.35;75.03;100070.09;5002377;28;20481;-82
2023/09/04 04:29:47;;;;;;;10.85;9.07;;;;;;;13.19;75.48;100062.78;4983669;28;20618;-82
2023/09/04 04:32:14;;;;;;;10.93;8.70;;;;;;;13.39;75.34;100060.53;4985655;28;20179;-82
2023/09/04 04:34:40;;;;;;;16.67;9.35;;;;;;;13.39;75.26;100060.53;5000082;28;20675;-82
2023/09/04 04:37:06;;;;;;;12.48;8.73;;;;;;;13.26;75.65;100066.16;4971993;28;20083;-83
2023/09/04 04:39:31;;;;;;;15.02;8.30;;;;;;;13.27;75.35;100058.94;4958803;28;20022;-83
2023/09/04 04:41:56;;;;;;;12.50;8.05;;;;;;;13.29;75.21;100065.69;4968772;28;20091;-83
2023/09/04 04:44:22;;;;;;;11.35;8.07;;;;;;;13.22;74.88;100050.78;4969810;28;20125;-82
2023/09/04 04:46:47;;;;;;;11.35;7.63;;;;;;;13.09;74.78;100038.44;4955215;28;20026;-83
2023/09/04 04:49:16;;;;;;;10.57;7.28;;;;;;;13.15;74.57;100052.78;4990416;28;20040;-83
2023/09/04 04:51:41;;;;;;;7.45;6.60;;;;;;;13.23;74.72;100058.59;4999304;28;20037;-83
2023/09/04 04:54:06;;;;;;;9.27;6.30;;;;;;;12.99;74.71;100046.25;4988546;28;20029;-83
2023/09/04 04:56:32;;;;;;;14.00;6.53;;;;;;;13.12;75.43;100058.59;4958678;28;20045;-83
2023/09/04 04:58:57;;;;;;;8.93;7.28;;;;;;;13.22;74.58;100070.38;4994532;28;20088;-83
2023/09/04 05:01:22;;;;;;;11.82;7.05;;;;;;;13.32;74.64;100072.47;4954993;28;20029;-83
2023/09/04 05:03:47;;;;;;;12.27;7.20;;;;;;;13.23;74.75;100077.38;4976525;28;20034;-83
2023/09/04 05:06:13;;;;;;;10.00;6.53;;;;;;;13.25;74.56;100058.34;4982034;28;20393;-83
2023/09/04 05:08:38;;;;;;;10.50;7.50;;;;;;;13.26;74.83;100081.41;4989540;28;20533;-83
2023/09/04 05:11:05;;;;;;;11.15;7.72;;;;;;;13.33;74.85;100087.47;4982454;28;20771;-82
2023/09/04 05:13:31;;;;;;;9.73;6.72;;;;;;;13.21;74.62;100074.13;4989049;28;20045;-82
2023/09/04 05:16:02;;;;;;;10.05;7.55;;;;;;;13.21;74.92;100079.47;4971012;28;20026;-82
2023/09/04 05:18:27;;;;;;;10.07;7.25;;;;;;;13.14;75.30;100069.91;5005527;28;20041;-81
2023/09/04 05:20:53;;;;;;;10.52;8.25;;;;;;;13.25;75.52;100075.25;4993793;28;20025;-82
2023/09/04 05:23:18;;;;;;;13.98;8.20;;;;;;;13.30;75.90;100074.56;4988941;28;20084;-82
2023/09/04 05:25:51;;;;;;;17.65;8.05;;;;;;;13.13;76.62;100055.69;4966322;28;20045;-82
2023/09/04 05:28:17;;;;;;;13.18;8.25;;;;;;;13.24;76.17;100062.91;4982457;28;20076;-81
2023/09/04 05:30:42;;;;;;;13.93;9.38;;;;;;;13.24;76.87;100078.16;4975483;28;20026;-82
2023/09/04 05:33:08;;;;;;;11.93;8.63;;;;;;;13.14;77.61;100068.06;4984097;28;20453;-82
2023/09/04 05:35:33;;;;;;;10.15;8.55;;;;;;;13.32;77.64;100081.28;4986858;28;20034;-82
2023/09/04 05:37:58;;;;;;;11.90;9.05;;;;;;;13.27;77.75;100075.03;4974324;28;20038;-82
2023/09/04 05:40:24;;;;;;;11.23;8.23;;;;;;;13.25;78.03;100069.91;4975031;28;20046;-82
2023/09/04 05:42:50;;;;;;;9.85;8.20;;;;;;;13.23;78.17;100063.97;4991605;28;20481;-82
2023/09/04 05:45:16;;;;;;;9.93;8.90;;;;;;;13.39;78.86;100081.97;5001513;28;20040;-82
2023/09/04 05:47:42;;;;;;;10.05;7.45;;;;;;;13.34;79.18;100076.53;5002430;28;20017;-82
2023/09/04 05:50:09;;;;;;;9.88;7.75;;;;;;;13.24;79.20;100065.56;5007373;28;20386;-82
2023/09/04 05:52:35;;;;;;;8.15;7.22;;;;;;;13.43;79.35;100083.13;4985356;28;20036;-82
2023/09/04 05:55:00;;;;;;;7.70;6.68;;;;;;;13.44;79.11;100090.16;5005844;28;20405;-82
2023/09/04 05:57:26;;;;;;;8.00;6.15;;;;;;;13.41;79.44;100087.94;5006770;28;20061;-82
2023/09/04 05:59:52;;;;;;;7.82;6.97;;;;;;;13.41;78.96;100074.53;4971741;28;20045;-82
2023/09/04 06:02:17;;;;;;;6.15;5.60;;;;;;;13.48;79.46;100082.44;4988577;28;20516;-82
2023/09/04 06:04:42;;;;;;;5.97;5.38;;;;;;;13.42;79.32;100078.03;4991306;28;20068;-82
2023/09/04 06:07:10;;;;;;;5.43;4.93;;;;;;;13.57;79.18;100083.69;4975166;28;20053;-82
2023/09/04 06:09:36;;;;;;;5.75;5.25;;;;;;;13.50;79.77;100080.31;4986787;28;20397;-82
2023/09/04 06:12:02;;;;;;;6.90;5.18;;;;;;;13.46;79.96;100088.03;4991192;28;20045;-82
2023/09/04 06:14:28;;;;;;;6.20;5.60;;;;;;;13.55;79.82;100077.75;4993119;28;20137;-82
2023/09/04 06:16:53;;;;;;;6.88;5.85;;;;;;;13.66;79.40;100078.78;4954057;28;20030;-82
2023/09/04 06:19:18;;;;;;;6.57;5.97;;;;;;;13.56;79.26;100070.53;4985398;28;20147;-82
2023/09/04 06:21:44;;;;;;;7.75;6.03;;;;;;;13.77;79.31;100085.97;5006992;28;20034;-82
2023/09/04 06:24:09;;;;;;;7.68;5.60;;;;;;;13.70;79.34;100085.28;5007441;28;20034;-82
2023/09/04 06:26:34;;;;;;;8.45;7.32;;;;;;;13.67;79.76;100083.09;5007588;28;20113;-82
2023/09/04 06:29:00;;;;;;;6.72;6.10;;;;;;;13.80;79.48;100078.28;4986737;28;20104;-82
2023/09/04 06:31:25;;;;;;;7.03;6.32;;;;;;;13.97;79.40;100092.56;4993079;28;20034;-82
2023/09/04 06:33:51;;;;;;;6.18;5.57;;;;;;;13.89;79.03;100076.03;4987833;28;20127;-83
2023/09/04 06:36:16;;;;;;;9.07;5.75;;;;;;;13.94;78.83;100084.97;5005002;28;20038;-82
2023/09/04 06:38:42;;;;;;;6.30;5.47;;;;;;;13.81;79.51;100081.75;4995921;28;20121;-82
2023/09/04 06:41:07;;;;;;;7.55;5.55;;;;;;;13.99;78.32;100089.63;4982169;28;20113;-82
2023/09/04 06:43:32;;;;;;;6.22;5.10;;;;;;;13.95;78.49;100077.75;5006755;28;20083;-81
2023/09/04 06:46:02;;;;;;;9.15;5.03;;;;;;;13.95;79.10;100075.06;4968977;28;20056;-82
2023/09/04 06:48:28;;;;;;;5.63;5.10;;;;;;;14.07;78.80;100073.13;4961025;28;20113;-82
2023/09/04 06:50:53;;;;;;;8.05;5.50;;;;;;;14.14;78.82;100088.03;4995366;28;20113;-82
2023/09/04 06:53:19;;;;;;;6.65;6.03;;;;;;;14.26;78.34;100077.25;4995458;28;20037;-82
2023/09/04 06:55:47;;;;;;;6.22;5.50;;;;;;;14.15;78.42;100075.44;5001611;28;20033;-82
2023/09/04 06:58:12;;;;;;;6.40;5.80;;;;;;;14.36;78.26;100087.34;4999613;28;20449;-82
2023/09/04 07:00:37;;;;;;;6.72;6.00;;;;;;;14.39;78.43;100087.72;4993748;28;20121;-83
2023/09/04 07:03:04;;;;;;;6.57;5.95;;;;;;;14.30;78.40;100067.66;4993213;28;20498;-82
2023/09/04 07:05:30;;;;;;;8.40;5.85;;;;;;;14.44;78.17;100077.03;5001673;28;20034;-83
2023/09/04 07:07:55;;;;;;;12.68;6.75;;;;;;;14.42;78.17;100081.00;5000313;28;20030;-82
2023/09/04 07:10:20;;;;;;;8.10;6.20;;;;;;;14.35;78.26;100078.47;4984040;28;20040;-82
2023/09/04 07:12:46;;;;;;;8.23;7.05;;;;;;;14.43;78.50;100078.09;4992072;28;20029;-81
2023/09/04 07:15:12;;;;;;;9.70;6.20;;;;;;;14.41;78.25;100082.91;4966367;28;20029;-82
2023/09/04 07:17:38;;;;;;;7.43;6.72;;;;;;;14.45;78.70;100089.41;5004932;28;20052;-82
2023/09/04 07:20:04;;;;;;;6.78;6.07;;;;;;;14.25;79.31;100075.59;4973890;28;20033;-82
2023/09/04 07:22:30;;;;;;;7.85;6.07;;;;;;;14.23;79.94;100077.72;5008160;28;20132;-82
2023/09/04 07:24:55;;;;;;;6.15;5.55;;;;;;;14.34;79.10;100073.38;5005465;28;20053;-82
2023/09/04 07:27:20;;;;;;;8.38;6.40;;;;;;;14.17;81.06;100084.06;5009661;28;20029;-82
2023/09/04 07:29:46;;;;;;;6.25;5.65;;;;;;;14.37;79.79;100070.19;4972777;28;20030;-83
2023/09/04 07:32:11;;;;;;;6.03;5.43;;;;;;;14.37;80.04;100080.94;4990900;28;20030;-82
2023/09/04 07:34:37;;;;;;;5.47;4.97;;;;;;;14.37;79.94;100071.03;4993323;28;20502;-82
2023/09/04 07:37:03;;;;;;;7.80;6.07;;;;;;;14.41;80.20;100080.22;5000998;28;20042;-82
2023/09/04 07:39:28;;;;;;;7.43;6.15;;;;;;;14.20;81.62;100088.94;4993050;28;20021;-82
2023/09/04 07:41:56;;;;;;;9.15;6.05;;;;;;;14.38;81.23;100091.44;4991128;28;20233;-82
2023/09/04 07:44:21;;;;;;;6.05;4.88;;;;;;;14.45;80.29;100075.97;4992511;28;20831;-82
2023/09/04 07:46:47;;;;;;;10.10;6.22;;;;;;;14.24;82.43;100082.03;4960006;28;20104;-82
2023/09/04 07:49:12;;;;;;;8.88;6.10;;;;;;;14.21;82.52;100095.94;4957477;28;20056;-82
2023/09/04 07:51:37;;;;;;;4.68;4.28;;;;;;;14.47;80.95;100099.91;4992517;28;20394;-83
2023/09/04 07:54:03;;;;;;;5.35;4.85;;;;;;;14.49;81.45;100106.69;4960103;28;20167;-82
2023/09/04 07:56:28;;;;;;;5.30;4.63;;;;;;;14.70;79.93;100099.78;5001275;28;20045;-82
2023/09/04 07:58:54;;;;;;;6.18;5.00;;;;;;;14.64;80.91;100101.56;4984543;28;20092;-83
2023/09/04 08:01:19;;;;;;;6.65;5.85;;;;;;;14.50;81.89;100100.25;4979282;28;20038;-82
2023/09/04 08:03:44;;;;;;;5.75;5.18;;;;;;;14.30;84.02;100094.53;4970268;28;21456;-83
2023/09/04 08:06:10;;;;;;;6.65;5.25;;;;;;;14.58;82.67;100102.53;4989689;28;20386;-83
2023/09/04 08:08:35;;;;;;;6.82;6.13;;;;;;;14.61;82.51;100095.88;4983854;28;20053;-82
2023/09/04 08:11:01;;;;;;;6.45;4.43;;;;;;;14.60;82.91;100091.53;4985306;28;20042;-82
2023/09/04 08:13:26;;;;;;;4.53;4.10;;;;;;;14.90;81.29;100083.94;4997782;28;20478;-82
2023/09/04 08:15:52;;;;;;;5.50;4.20;;;;;;;14.93;81.20;100088.84;4991947;28;20029;-82
2023/09/04 08:18:18;;;;;;;6.97;4.05;;;;;;;14.94;81.41;100091.28;4988650;28;20100;-83
2023/09/04 08:20:43;;;;;;;6.07;4.70;;;;;;;14.95;81.24;100082.16;4984514;28;20035;-82
2023/09/04 08:23:12;;;;;;;5.47;4.88;;;;;;;14.91;81.92;100088.28;4991730;28;20033;-82
2023/09/04 08:25:37;;;;;;;6.57;4.47;;;;;;;14.94;82.56;100090.44;5011879;28;20018;-83
2023/09/04 08:28:03;;;;;;;5.88;4.75;;;;;;;15.02;82.82;100096.25;4994530;28;20030;-81
2023/09/04 08:30:29;;;;;;;10.57;5.45;;;;;;;15.17;81.41;100090.28;5008718;28;20113;-82
2023/09/04 08:32:55;;;;;;;7.03;5.85;;;;;;;15.12;82.92;100092.06;5008401;28;20042;-82
2023/09/04 08:35:20;;;;;;;5.35;4.35;;;;;;;15.21;81.28;100075.25;4978339;28;20041;-82
2023/09/04 08:37:47;;;;;;;7.22;6.40;;;;;;;14.78;85.23;100064.41;4988941;28;20089;-82
2023/09/04 08:40:12;;;;;;;8.18;6.38;;;;;;;14.69;86.81;100073.94;4987111;28;20029;-82
2023/09/04 08:42:39;;;;;;;4.10;3.80;;;;;;;15.19;82.98;100073.88;4988977;28;20462;-82
2023/09/04 08:45:08;;;;;;;5.18;4.63;;;;;;;15.17;82.66;100043.72;4983258;28;20038;-82
2023/09/04 08:47:40;;;;;;;6.72;5.45;;;;;;;15.09;85.41;100063.00;5012473;28;20500;-82
2023/09/04 08:50:10;;;;;;;7.38;4.10;;;;;;;15.21;85.27;100063.69;5006911;28;20030;-82
2023/09/04 08:52:37;;;;;;;5.25;4.00;;;;;;;15.48;82.85;100061.94;5007917;28;20022;-81
2023/09/04 08:55:06;;;;;;;4.30;3.45;;;;;;;15.41;84.16;100066.63;5011816;28;20030;-82
2023/09/04 08:57:33;;;;;;;4.15;3.75;;;;;;;15.69;82.35;100058.41;4991902;28;20026;-81
2023/09/04 08:59:59;;;;;;;4.32;3.80;;;;;;;16.00;80.08;100054.97;4991544;28;20037;-82
2023/09/04 09:02:24;;;;;;;3.47;3.00;;;;;;;16.11;79.26;100064.78;4986562;28;20548;-82
2023/09/04 09:04:51;;;;;;;3.88;2.90;;;;;;;16.20;79.09;100060.56;5001724;28;20920;-82
2023/09/04 09:07:18;;;;;;;3.45;3.00;;;;;;;16.23;78.87;100057.34;5002266;28;20038;-81
2023/09/04 09:09:49;;;;;;;5.72;4.63;;;;;;;16.09;80.80;100061.53;4991515;28;20022;-82
2023/09/04 09:12:14;;;;;;;4.10;3.70;;;;;;;15.95;81.04;100049.53;4985568;28;20036;-82
2023/09/04 09:14:40;;;;;;;5.63;3.72;;;;;;;16.00;82.28;100054.97;4970215;28;20456;-82
2023/09/04 09:17:08;;;;;;;5.43;3.45;;;;;;;16.57;78.71;100052.56;4970104;28;20030;-84
2023/09/04 09:19:34;;;;;;;7.43;3.80;;;;;;;16.46;78.71;100030.06;4980903;28;20505;-83
2023/09/04 09:22:10;;;;;;;4.53;4.13;;;;;;;16.62;79.29;100062.56;4991597;28;20124;-83
2023/09/04 09:24:47;;;;;;;;;;;;;;;16.49;80.76;100051.09;4987599;28;20025;-82
2023/09/04 09:27:13;;;;;;;3.38;3.05;;;;;;;16.70;79.31;100048.59;5004956;28;20411;-83
2023/09/04 09:29:38;;;;;;;4.90;3.45;;;;;;;16.60;79.13;100035.84;4974225;28;20037;-82
2023/09/04 09:32:04;;;;;;;6.72;2.97;;;;;;;16.99;77.94;100036.41;4985996;28;20361;-83
2023/09/04 09:34:33;;;;;;;3.90;3.53;;;;;;;17.16;76.99;100027.06;4989468;28;20627;-83
2023/09/04 09:36:58;;;;;;;7.07;3.40;;;;;;;17.22;76.80;100034.09;4992158;28;20061;-84
2023/09/04 09:39:25;;;;;;;5.30;3.50;;;;;;;17.19;77.56;100020.28;4977080;28;20111;-83
2023/09/04 09:41:51;;;;;;;7.45;3.90;;;;;;;17.24;76.08;100031.13;4967172;28;20058;-83
2023/09/04 09:44:17;;;;;;;6.78;3.33;;;;;;;17.32;76.72;100027.91;5005965;28;21676;-83
2023/09/04 09:46:42;;;;;;;4.45;3.13;;;;;;;17.47;76.33;100028.00;4963876;28;20038;-84
2023/09/04 09:49:07;;;;;;;7.18;3.38;;;;;;;17.20;75.54;100021.94;4988044;28;20036;-83
2023/09/04 09:51:34;;;;;;;3.28;2.97;;;;;;;17.78;76.27;100020.81;4999213;28;20517;-83
2023/09/04 09:54:00;;;;;;;5.55;3.10;;;;;;;17.65;75.48;100024.00;4972312;28;21007;-83
2023/09/04 09:56:25;;;;;;;3.63;2.95;;;;;;;18.03;75.13;100011.94;4989369;28;20048;-84
2023/09/04 09:58:51;;;;;;;4.80;2.97;;;;;;;17.95;75.16;100008.69;4985705;28;20548;-83
2023/09/04 10:01:17;;;;;;;3.28;2.97;;;;;;;18.26;72.65;100016.84;4966085;28;20038;-84
2023/09/04 10:03:46;;;;;;;3.47;2.88;;;;;;;18.27;71.53;100013.88;5004406;28;20488;-83
2023/09/04 10:06:19;;;;;;;4.85;3.13;;;;;;;18.20;70.72;100009.78;4995956;28;20018;-83
2023/09/04 10:08:47;;;;;;;4.82;2.97;;;;;;;18.16;72.13;99998.72;4991240;28;20048;-84
2023/09/04 10:11:14;;;;;;;5.78;2.67;;;;;;;18.29;72.05;100000.06;5008341;28;20030;-84
2023/09/04 10:14:08;;;;;;;3.25;2.60;;;;;;;18.59;71.25;100005.50;4971964;28;20486;-84
2023/09/04 10:16:40;;;;;;;2.85;2.35;;;;;;;18.70;71.21;99993.56;4994763;28;20501;-84
2023/09/04 10:19:10;;;;;;;3.78;2.85;;;;;;;18.94;69.65;99988.38;5005902;28;20041;-85
2023/09/04 10:21:40;;;;;;;3.75;2.50;;;;;;;18.97;68.75;99974.31;5003525;28;20499;-84
2023/09/04 10:24:12;;;;;;;5.25;2.72;;;;;;;18.81;68.09;99988.94;4993837;28;20037;-84
2023/09/04 10:26:58;;;;;;;5.32;2.63;;;;;;;19.19;68.51;99983.72;4991221;28;20172;-84
2023/09/04 10:29:26;;;;;;;4.80;2.47;;;;;;;19.01;66.40;99987.00;5013065;28;20049;-84
2023/09/04 10:31:53;;;;;;;3.45;3.00;;;;;;;18.85;66.02;99996.25;4985704;28;21117;-84
2023/09/04 10:34:19;;;;;;;2.97;2.20;;;;;;;19.13;68.45;99992.13;4990714;28;20038;-84
2023/09/04 10:36:46;;;;;;;3.05;2.50;;;;;;;19.62;67.56;99984.06;4993326;28;20030;-84
2023/09/04 10:39:12;;;;;;;4.95;2.88;;;;;;;19.76;66.41;99980.47;4985053;28;20116;-85
2023/09/04 10:41:38;;;;;;;4.93;2.92;;;;;;;20.01;65.58;99979.47;4985494;28;20030;-85
2023/09/04 10:44:04;;;;;;;4.68;2.70;;;;;;;19.89;65.77;99971.72;4992737;28;20041;-85
2023/09/04 10:46:29;;;;;;;2.88;2.65;;;;;;;19.95;64.88;99980.59;4959355;28;20030;-83
2023/09/04 10:48:55;;;;;;;2.58;2.38;;;;;;;19.48;63.08;99958.69;4982103;28;20041;-83
2023/09/04 10:51:47;;;;;;;3.83;2.33;;;;;;;20.00;65.61;99958.88;4984784;28;20066;-83
2023/09/04 10:54:12;;;;;;;2.47;2.28;;;;;;;20.32;64.03;99970.03;5004807;28;20038;-83
2023/09/04 10:56:58;;;;;;;3.45;2.35;;;;;;;20.32;62.66;99952.94;4989245;28;20037;-83
2023/09/04 10:59:24;;;;;;;3.25;2.05;;;;;;;20.40;61.36;99971.34;5007961;28;20026;-83
2023/09/04 11:01:50;;;;;;;5.22;2.45;;;;;;;20.61;61.73;99957.28;4973869;28;20927;-82
2023/09/04 11:04:42;;;;;;;3.65;2.65;;;;;;;20.41;63.30;99964.81;4988625;28;20100;-82
2023/09/04 11:07:20;;;;;;;6.40;2.35;;;;;;;20.62;60.91;99961.59;4985016;28;20030;-83
2023/09/04 11:10:06;;;;;;;4.63;2.13;;;;;;;21.11;61.36;99963.28;5001453;28;20037;-81
2023/09/04 11:12:36;;;;;;;2.78;2.50;;;;;;;21.08;61.20;99950.28;4952430;28;20054;-81
2023/09/04 11:15:13;;;;;;;3.95;3.03;;;;;;;21.43;60.56;99944.38;5004462;28;20037;-81
2023/09/04 11:17:40;;;;;;;4.20;2.13;;;;;;;21.59;59.91;99962.91;5004716;28;20478;-81
2023/09/04 11:20:06;;;;;;;4.28;2.38;;;;;;;21.51;58.89;99960.81;4994819;28;20022;-82
2023/09/04 11:22:33;;;;;;;5.03;2.45;;;;;;;21.81;60.12;99962.31;4994773;28;20038;-82